sensor_id;sensor_type;location;lat;lon;timestamp;pressure;altitude;pressure_sealevel;temperature;humidity
34500;BME280;20745;50.882;6.962;2023-03-22T00:02:02;100549.00;;;11.95;100.00
34500;BME280;20745;50.882;6.962;2023-03-22T00:04:29;100546.94;;;11.97;100.00
34500;BME280;20745;50.882;6.962;2023-03-22T00:06:56;100547.00;;;12.04;100.00
34500;BME280;20745;50.882;6.962;2023-03-22T00:09:22;100536.78;;;11.99;100.00
34500;BME280;20745;50.882;6.962;2023-03-22T00:11:49;100543.09;;;12.06;100.00
34500;BME280;20745;50.882;6.962;2023-03-22T00:14:17;100541.19;;;12.07;100.00
34500;BME280;20745;50.882;6.962;2023-03-22T00:16:43;100535.38;;;12.10;100.00
34500;BME280;20745;50.882;6.962;2023-03-22T00:19:11;100533.16;;;12.13;100.00
34500;BME280;20745;50.882;6.962;2023-03-22T00:21:38;100528.34;;;12.15;100.00
34500;BME280;20745;50.882;6.962;2023-03-22T00:24:04;100529.00;;;12.17;100.00
34500;BME280;20745;50.882;6.962;2023-03-22T00:26:31;100530.88;;;12.17;100.00
34500;BME280;20745;50.882;6.962;2023-03-22T00:28:58;100523.00;;;12.22;100.00
34500;BME280;20745;50.882;6.962;2023-03-22T00:31:26;100513.00;;;12.22;100.00
34500;BME280;20745;50.882;6.962;2023-03-22T00:33:52;100505.72;;;12.23;100.00
34500;BME280;20745;50.882;6.962;2023-03-22T00:36:18;100505.50;;;12.24;100.00
34500;BME280;20745;50.882;6.962;2023-03-22T00:38:45;100505.50;;;12.24;100.00
34500;BME280;20745;50.882;6.962;2023-03-22T00:41:14;100506.16;;;12.26;100.00
34500;BME280;20745;50.882;6.962;2023-03-22T00:43:42;100492.25;;;12.29;100.00
34500;BME280;20745;50.882;6.962;2023-03-22T00:46:10;100496.41;;;12.32;100.00
34500;BME280;20745;50.882;6.962;2023-03-22T00:48:37;100495.56;;;12.31;100.00
34500;BME280;20745;50.882;6.962;2023-03-22T00:51:04;100492.03;;;12.31;100.00
34500;BME280;20745;50.882;6.962;2023-03-22T00:53:32;100488.69;;;12.29;100.00
34500;BME280;20745;50.882;6.962;2023-03-22T00:55:58;100483.25;;;12.29;100.00
34500;BME280;20745;50.882;6.962;2023-03-22T00:58:25;100479.31;;;12.31;100.00
34500;BME280;20745;50.882;6.962;2023-03-22T01:00:52;100473.03;;;12.24;100.00
34500;BME280;20745;50.882;6.962;2023-03-22T01:03:18;100473.41;;;12.21;100.00
34500;BME280;20745;50.882;6.962;2023-03-22T01:05:47;100471.28;;;12.17;100.00
34500;BME280;20745;50.882;6.962;2023-03-22T01:08:14;100467.50;;;12.11;100.00
34500;BME280;20745;50.882;6.962;2023-03-22T01:10:43;100464.81;;;12.11;100.00
34500;BME280;20745;50.882;6.962;2023-03-22T01:13:10;100462.50;;;12.08;100.00
34500;BME280;20745;50.882;6.962;2023-03-22T01:15:37;100465.00;;;12.10;100.00
34500;BME280;20745;50.882;6.962;2023-03-22T01:18:03;100469.63;;;12.16;100.00
34500;BME280;20745;50.882;6.962;2023-03-22T01:20:30;100471.75;;;12.20;100.00
34500;BME280;20745;50.882;6.962;2023-03-22T01:22:57;100469.44;;;12.17;100.00
34500;BME280;20745;50.882;6.962;2023-03-22T01:25:24;100474.47;;;12.20;100.00
34500;BME280;20745;50.882;6.962;2023-03-22T01:27:51;100455.25;;;12.15;100.00
34500;BME280;20745;50.882;6.962;2023-03-22T01:30:17;100465.94;;;12.23;100.00
34500;BME280;20745;50.882;6.962;2023-03-22T01:32:44;100456.38;;;12.27;100.00
34500;BME280;20745;50.882;6.962;2023-03-22T01:35:10;100456.38;;;12.27;100.00
34500;BME280;20745;50.882;6.962;2023-03-22T01:37:37;100447.22;;;12.28;100.00
34500;BME280;20745;50.882;6.962;2023-03-22T01:40:04;100448.06;;;12.29;100.00
34500;BME280;20745;50.882;6.962;2023-03-22T01:42:31;100441.38;;;12.25;100.00
34500;BME280;20745;50.882;6.962;2023-03-22T01:47:58;100447.59;;;12.25;100.00
34500;BME280;20745;50.882;6.962;2023-03-22T01:50:27;100442.19;;;12.25;100.00
34500;BME280;20745;50.882;6.962;2023-03-22T01:52:56;100443.63;;;12.21;100.00
34500;BME280;20745;50.882;6.962;2023-03-22T01:55:23;100435.09;;;12.18;100.00
34500;BME280;20745;50.882;6.962;2023-03-22T01:57:52;100435.47;;;12.15;100.00
34500;BME280;20745;50.882;6.962;2023-03-22T02:00:19;100431.72;;;12.16;100.00
34500;BME280;20745;50.882;6.962;2023-03-22T02:02:48;100430.84;;;12.09;100.00
34500;BME280;20745;50.882;6.962;2023-03-22T02:05:16;100428.75;;;12.04;100.00
34500;BME280;20745;50.882;6.962;2023-03-22T02:07:44;100423.72;;;12.01;100.00
34500;BME280;20745;50.882;6.962;2023-03-22T02:10:22;100421.00;;;12.01;100.00
34500;BME280;20745;50.882;6.962;2023-03-22T02:21:48;100404.63;;;12.09;100.00
34500;BME280;20745;50.882;6.962;2023-03-22T02:27:33;100407.09;;;12.04;100.00
34500;BME280;20745;50.882;6.962;2023-03-22T02:30:43;100407.28;;;12.03;100.00
34500;BME280;20745;50.882;6.962;2023-03-22T02:44:41;100389.66;;;11.79;100.00
34500;BME280;20745;50.882;6.962;2023-03-22T02:47:24;100394.41;;;11.77;100.00
34500;BME280;20745;50.882;6.962;2023-03-22T02:49:56;100388.53;;;11.74;100.00
34500;BME280;20745;50.882;6.962;2023-03-22T02:52:32;100382.72;;;11.70;100.00
34500;BME280;20745;50.882;6.962;2023-03-22T02:55:17;100372.94;;;11.69;100.00
34500;BME280;20745;50.882;6.962;2023-03-22T02:57:57;100376.66;;;11.68;100.00
34500;BME280;20745;50.882;6.962;2023-03-22T03:00:26;100369.97;;;11.64;100.00
34500;BME280;20745;50.882;6.962;2023-03-22T03:03:00;100371.00;;;11.63;100.00
34500;BME280;20745;50.882;6.962;2023-03-22T03:05:52;100368.00;;;11.58;100.00
34500;BME280;20745;50.882;6.962;2023-03-22T03:08:21;100357.56;;;11.55;100.00
34500;BME280;20745;50.882;6.962;2023-03-22T03:10:49;100367.66;;;11.61;100.00
34500;BME280;20745;50.882;6.962;2023-03-22T03:13:17;100350.53;;;11.61;100.00
34500;BME280;20745;50.882;6.962;2023-03-22T03:15:50;100357.19;;;11.58;100.00
34500;BME280;20745;50.882;6.962;2023-03-22T03:26:54;100351.63;;;11.39;100.00
34500;BME280;20745;50.882;6.962;2023-03-22T03:29:40;100354.06;;;11.34;100.00
34500;BME280;20745;50.882;6.962;2023-03-22T03:32:24;100360.91;;;11.30;100.00
34500;BME280;20745;50.882;6.962;2023-03-22T03:35:03;100352.38;;;11.26;100.00
34500;BME280;20745;50.882;6.962;2023-03-22T03:37:36;100352.75;;;11.23;100.00
34500;BME280;20745;50.882;6.962;2023-03-22T03:40:10;100353.13;;;11.20;100.00
34500;BME280;20745;50.882;6.962;2023-03-22T03:42:41;100346.84;;;11.13;100.00
34500;BME280;20745;50.882;6.962;2023-03-22T03:45:09;100351.00;;;11.16;100.00
34500;BME280;20745;50.882;6.962;2023-03-22T03:47:36;100347.72;;;11.20;100.00
34500;BME280;20745;50.882;6.962;2023-03-22T03:50:03;100348.13;;;11.17;100.00
34500;BME280;20745;50.882;6.962;2023-03-22T03:52:31;100350.56;;;11.12;100.00
34500;BME280;20745;50.882;6.962;2023-03-22T03:54:57;100357.28;;;11.16;100.00
34500;BME280;20745;50.882;6.962;2023-03-22T03:57:24;100358.09;;;11.17;100.00
34500;BME280;20745;50.882;6.962;2023-03-22T03:59:50;100361.81;;;11.16;100.00
34500;BME280;20745;50.882;6.962;2023-03-22T04:02:17;100364.06;;;11.12;100.00
34500;BME280;20745;50.882;6.962;2023-03-22T04:04:43;100355.94;;;11.12;100.00
34500;BME280;20745;50.882;6.962;2023-03-22T04:07:10;100365.19;;;11.18;100.00
34500;BME280;20745;50.882;6.962;2023-03-22T04:09:37;100364.72;;;11.14;100.00
34500;BME280;20745;50.882;6.962;2023-03-22T04:12:05;100360.16;;;11.15;100.00
34500;BME280;20745;50.882;6.962;2023-03-22T04:14:34;100357.88;;;11.18;100.00
34500;BME280;20745;50.882;6.962;2023-03-22T04:17:01;100357.06;;;11.18;100.00
34500;BME280;20745;50.882;6.962;2023-03-22T04:19:27;100362.25;;;11.19;100.00
34500;BME280;20745;50.882;6.962;2023-03-22T04:21:54;100359.78;;;11.18;100.00
34500;BME280;20745;50.882;6.962;2023-03-22T04:24:21;100357.28;;;11.16;100.00
34500;BME280;20745;50.882;6.962;2023-03-22T04:26:48;100366.66;;;11.20;100.00
34500;BME280;20745;50.882;6.962;2023-03-22T04:29:14;100364.34;;;11.17;100.00
34500;BME280;20745;50.882;6.962;2023-03-22T04:31:41;100356.03;;;11.19;100.00
34500;BME280;20745;50.882;6.962;2023-03-22T04:34:07;100349.97;;;11.17;100.00
34500;BME280;20745;50.882;6.962;2023-03-22T04:36:36;100351.44;;;11.19;100.00
34500;BME280;20745;50.882;6.962;2023-03-22T04:39:06;100352.75;;;11.23;100.00
34500;BME280;20745;50.882;6.962;2023-03-22T04:41:34;100356.66;;;11.21;100.00
34500;BME280;20745;50.882;6.962;2023-03-22T04:44:02;100345.22;;;11.19;100.00
34500;BME280;20745;50.882;6.962;2023-03-22T04:46:34;100333.75;;;11.17;100.00
34500;BME280;20745;50.882;6.962;2023-03-22T04:49:02;100344.38;;;11.18;100.00
34500;BME280;20745;50.882;6.962;2023-03-22T04:51:29;100338.16;;;11.18;100.00
34500;BME280;20745;50.882;6.962;2023-03-22T04:53:57;100329.81;;;11.19;100.00
34500;BME280;20745;50.882;6.962;2023-03-22T04:56:23;100329.38;;;11.16;100.00
34500;BME280;20745;50.882;6.962;2023-03-22T04:58:50;100320.19;;;11.10;100.00
34500;BME280;20745;50.882;6.962;2023-03-22T05:01:17;100324.41;;;11.19;100.00
34500;BME280;20745;50.882;6.962;2023-03-22T05:03:44;100329.81;;;11.19;100.00
34500;BME280;20745;50.882;6.962;2023-03-22T05:06:13;100334.66;;;11.24;100.00
34500;BME280;20745;50.882;6.962;2023-03-22T05:08:40;100328.66;;;11.28;100.00
34500;BME280;20745;50.882;6.962;2023-03-22T05:11:10;100336.03;;;11.41;100.00
34500;BME280;20745;50.882;6.962;2023-03-22T05:13:39;100333.13;;;11.42;100.00
34500;BME280;20745;50.882;6.962;2023-03-22T05:16:06;100328.97;;;11.40;100.00
34500;BME280;20745;50.882;6.962;2023-03-22T05:18:33;100324.59;;;11.39;100.00
34500;BME280;20745;50.882;6.962;2023-03-22T05:21:00;100317.09;;;11.41;100.00
34500;BME280;20745;50.882;6.962;2023-03-22T05:23:29;100312.94;;;11.38;100.00
34500;BME280;20745;50.882;6.962;2023-03-22T05:25:55;100309.00;;;11.41;100.00
34500;BME280;20745;50.882;6.962;2023-03-22T05:28:23;100314.59;;;11.39;100.00
34500;BME280;20745;50.882;6.962;2023-03-22T05:30:52;100327.50;;;11.37;100.00
34500;BME280;20745;50.882;6.962;2023-03-22T05:33:22;100325.63;;;11.38;100.00
34500;BME280;20745;50.882;6.962;2023-03-22T05:35:48;100324.53;;;11.32;100.00
34500;BME280;20745;50.882;6.962;2023-03-22T05:38:16;100323.31;;;11.35;100.00
34500;BME280;20745;50.882;6.962;2023-03-22T05:40:43;100325.03;;;11.42;100.00
34500;BME280;20745;50.882;6.962;2023-03-22T05:43:10;100327.78;;;11.49;100.00
34500;BME280;20745;50.882;6.962;2023-03-22T05:45:37;100323.00;;;11.51;100.00
34500;BME280;20745;50.882;6.962;2023-03-22T05:48:03;100328.09;;;11.60;100.00
34500;BME280;20745;50.882;6.962;2023-03-22T05:50:30;100333.13;;;11.63;100.00
34500;BME280;20745;50.882;6.962;2023-03-22T05:52:58;100337.53;;;11.71;100.00
34500;BME280;20745;50.882;6.962;2023-03-22T05:55:25;100345.44;;;11.72;100.00
34500;BME280;20745;50.882;6.962;2023-03-22T05:57:51;100341.97;;;11.78;100.00
34500;BME280;20745;50.882;6.962;2023-03-22T06:00:20;100347.44;;;11.85;100.00
34500;BME280;20745;50.882;6.962;2023-03-22T06:02:48;100335.78;;;11.91;100.00
34500;BME280;20745;50.882;6.962;2023-03-22T06:05:15;100342.28;;;11.96;100.00
34500;BME280;20745;50.882;6.962;2023-03-22T06:07:43;100337.50;;;11.98;100.00
34500;BME280;20745;50.882;6.962;2023-03-22T06:10:12;100330.84;;;12.01;100.00
34500;BME280;20745;50.882;6.962;2023-03-22T06:12:39;100335.25;;;12.08;100.00
34500;BME280;20745;50.882;6.962;2023-03-22T06:15:06;100330.09;;;12.13;100.00
34500;BME280;20745;50.882;6.962;2023-03-22T06:17:33;100333.81;;;12.12;100.00
34500;BME280;20745;50.882;6.962;2023-03-22T06:19:59;100325.56;;;12.20;100.00
34500;BME280;20745;50.882;6.962;2023-03-22T06:22:26;100326.81;;;12.24;100.00
34500;BME280;20745;50.882;6.962;2023-03-22T06:24:55;100330.56;;;12.30;100.00
34500;BME280;20745;50.882;6.962;2023-03-22T06:27:22;100335.19;;;12.29;100.00
34500;BME280;20745;50.882;6.962;2023-03-22T06:29:48;100328.31;;;12.33;100.00
34500;BME280;20745;50.882;6.962;2023-03-22T06:32:16;100332.28;;;12.38;100.00
34500;BME280;20745;50.882;6.962;2023-03-22T06:34:43;100338.97;;;12.42;100.00
34500;BME280;20745;50.882;6.962;2023-03-22T06:37:09;100341.47;;;12.43;100.00
34500;BME280;20745;50.882;6.962;2023-03-22T06:39:36;100341.91;;;12.47;100.00
34500;BME280;20745;50.882;6.962;2023-03-22T06:42:02;100346.09;;;12.56;100.00
34500;BME280;20745;50.882;6.962;2023-03-22T06:44:29;100338.41;;;12.59;100.00
34500;BME280;20745;50.882;6.962;2023-03-22T06:46:55;100346.53;;;12.66;100.00
34500;BME280;20745;50.882;6.962;2023-03-22T06:49:22;100337.38;;;12.67;100.00
34500;BME280;20745;50.882;6.962;2023-03-22T06:51:49;100340.31;;;12.72;100.00
34500;BME280;20745;50.882;6.962;2023-03-22T06:54:15;100346.97;;;12.76;100.00
34500;BME280;20745;50.882;6.962;2023-03-22T06:56:42;100342.59;;;12.75;100.00
34500;BME280;20745;50.882;6.962;2023-03-22T06:59:09;100341.56;;;12.76;100.00
34500;BME280;20745;50.882;6.962;2023-03-22T07:01:35;100338.66;;;12.77;100.00
34500;BME280;20745;50.882;6.962;2023-03-22T07:04:02;100341.16;;;12.72;100.00
34500;BME280;20745;50.882;6.962;2023-03-22T07:06:29;100334.91;;;12.78;100.00
34500;BME280;20745;50.882;6.962;2023-03-22T07:08:57;100337.03;;;12.83;100.00
34500;BME280;20745;50.882;6.962;2023-03-22T07:11:24;100333.25;;;12.84;100.00
34500;BME280;20745;50.882;6.962;2023-03-22T07:13:52;100337.84;;;12.83;100.00
34500;BME280;20745;50.882;6.962;2023-03-22T07:16:20;100333.25;;;12.84;100.00
34500;BME280;20745;50.882;6.962;2023-03-22T07:18:47;100326.19;;;12.83;100.00
34500;BME280;20745;50.882;6.962;2023-03-22T07:21:13;100323.66;;;12.88;100.00
34500;BME280;20745;50.882;6.962;2023-03-22T07:23:40;100321.59;;;12.96;100.00
34500;BME280;20745;50.882;6.962;2023-03-22T07:26:07;100324.78;;;13.00;100.00
34500;BME280;20745;50.882;6.962;2023-03-22T07:28:33;100324.56;;;13.14;100.00
34500;BME280;20745;50.882;6.962;2023-03-22T07:31:08;100323.31;;;13.17;100.00
34500;BME280;20745;50.882;6.962;2023-03-22T07:33:38;100318.31;;;13.20;100.00
34500;BME280;20745;50.882;6.962;2023-03-22T07:36:06;100318.75;;;13.24;100.00
34500;BME280;20745;50.882;6.962;2023-03-22T07:38:33;100313.31;;;13.30;100.00
34500;BME280;20745;50.882;6.962;2023-03-22T07:41:00;100315.81;;;13.32;100.00
34500;BME280;20745;50.882;6.962;2023-03-22T07:43:27;100308.09;;;13.42;100.00
34500;BME280;20745;50.882;6.962;2023-03-22T07:45:53;100310.56;;;13.56;100.00
34500;BME280;20745;50.882;6.962;2023-03-22T07:48:21;100281.19;;;13.47;100.00
34500;BME280;20745;50.882;6.962;2023-03-22T07:50:48;100306.19;;;13.62;100.00
34500;BME280;20745;50.882;6.962;2023-03-22T07:53:15;100304.50;;;13.67;100.00
34500;BME280;20745;50.882;6.962;2023-03-22T07:55:42;100304.50;;;13.67;100.00
34500;BME280;20745;50.882;6.962;2023-03-22T07:58:08;100312.25;;;13.64;100.00
34500;BME280;20745;50.882;6.962;2023-03-22T08:00:35;100306.59;;;13.59;100.00
34500;BME280;20745;50.882;6.962;2023-03-22T08:03:03;100306.41;;;13.54;100.00
34500;BME280;20745;50.882;6.962;2023-03-22T08:05:29;100300.78;;;13.55;100.00
34500;BME280;20745;50.882;6.962;2023-03-22T08:07:56;100310.78;;;13.55;100.00
34500;BME280;20745;50.882;6.962;2023-03-22T08:10:22;100295.56;;;13.54;100.00
34500;BME280;20745;50.882;6.962;2023-03-22T08:12:49;100302.84;;;13.66;99.96
34500;BME280;20745;50.882;6.962;2023-03-22T08:15:15;100302.00;;;13.66;99.00
34500;BME280;20745;50.882;6.962;2023-03-22T08:17:42;100302.41;;;13.69;94.89
34500;BME280;20745;50.882;6.962;2023-03-22T08:20:08;100298.03;;;13.75;94.62
34500;BME280;20745;50.882;6.962;2023-03-22T08:22:35;100298.84;;;13.82;93.69
34500;BME280;20745;50.882;6.962;2023-03-22T08:25:03;100299.44;;;13.90;95.57
34500;BME280;20745;50.882;6.962;2023-03-22T08:27:30;100300.69;;;13.94;95.35
34500;BME280;20745;50.882;6.962;2023-03-22T08:29:57;100297.31;;;13.99;93.83
34500;BME280;20745;50.882;6.962;2023-03-22T08:32:24;100290.22;;;13.98;91.80
34500;BME280;20745;50.882;6.962;2023-03-22T08:34:50;100300.47;;;13.96;91.75
34500;BME280;20745;50.882;6.962;2023-03-22T08:37:18;100298.19;;;13.93;91.11
34500;BME280;20745;50.882;6.962;2023-03-22T08:39:47;100301.56;;;13.88;91.70
34500;BME280;20745;50.882;6.962;2023-03-22T08:42:14;100304.69;;;13.85;90.71
34500;BME280;20745;50.882;6.962;2023-03-22T08:44:40;100296.94;;;13.89;92.00
34500;BME280;20745;50.882;6.962;2023-03-22T08:47:07;100308.44;;;13.91;91.60
34500;BME280;20745;50.882;6.962;2023-03-22T08:49:34;100309.44;;;14.03;92.78
34500;BME280;20745;50.882;6.962;2023-03-22T08:52:00;100320.28;;;14.16;93.01
34500;BME280;20745;50.882;6.962;2023-03-22T08:54:27;100312.13;;;14.22;91.69
34500;BME280;20745;50.882;6.962;2023-03-22T08:56:59;100319.59;;;14.33;91.47
34500;BME280;20745;50.882;6.962;2023-03-22T08:59:26;100316.00;;;14.39;90.01
34500;BME280;20745;50.882;6.962;2023-03-22T09:01:53;100317.44;;;14.48;88.12
34500;BME280;20745;50.882;6.962;2023-03-22T09:04:19;100308.38;;;14.61;87.96
34500;BME280;20745;50.882;6.962;2023-03-22T09:06:46;100324.25;;;14.64;88.17
34500;BME280;20745;50.882;6.962;2023-03-22T09:09:13;100315.66;;;14.67;89.46
34500;BME280;20745;50.882;6.962;2023-03-22T09:11:39;100318.19;;;14.62;88.91
34500;BME280;20745;50.882;6.962;2023-03-22T09:14:08;100309.50;;;14.47;85.10
34500;BME280;20745;50.882;6.962;2023-03-22T09:16:34;100313.88;;;14.48;86.90
34500;BME280;20745;50.882;6.962;2023-03-22T09:19:01;100316.84;;;14.40;85.33
34500;BME280;20745;50.882;6.962;2023-03-22T09:21:28;100315.75;;;14.47;85.96
34500;BME280;20745;50.882;6.962;2023-03-22T09:23:55;100310.47;;;14.59;86.92
34500;BME280;20745;50.882;6.962;2023-03-22T09:26:21;100308.31;;;14.67;85.92
34500;BME280;20745;50.882;6.962;2023-03-22T09:28:49;100311.47;;;14.71;86.78
34500;BME280;20745;50.882;6.962;2023-03-22T09:31:16;100307.44;;;14.80;86.73
34500;BME280;20745;50.882;6.962;2023-03-22T09:33:45;100297.16;;;14.82;85.03
34500;BME280;20745;50.882;6.962;2023-03-22T09:36:12;100298.84;;;14.83;85.22
34500;BME280;20745;50.882;6.962;2023-03-22T09:38:39;100292.13;;;14.86;85.57
34500;BME280;20745;50.882;6.962;2023-03-22T09:41:12;100290.25;;;14.86;83.58
34500;BME280;20745;50.882;6.962;2023-03-22T09:43:49;100294.00;;;14.85;84.91
34500;BME280;20745;50.882;6.962;2023-03-22T09:46:22;100278.03;;;14.95;85.23
34500;BME280;20745;50.882;6.962;2023-03-22T09:48:50;100286.31;;;15.07;84.40
34500;BME280;20745;50.882;6.962;2023-03-22T09:51:48;100289.91;;;15.01;82.71
34500;BME280;20745;50.882;6.962;2023-03-22T09:54:18;100281.75;;;15.01;82.85
34500;BME280;20745;50.882;6.962;2023-03-22T09:56:59;100276.44;;;15.12;83.36
34500;BME280;20745;50.882;6.962;2023-03-22T09:59:39;100285.78;;;15.23;81.28
34500;BME280;20745;50.882;6.962;2023-03-22T10:02:38;100286.53;;;15.36;80.84
34500;BME280;20745;50.882;6.962;2023-03-22T10:07:52;100293.78;;;15.42;78.95
34500;BME280;20745;50.882;6.962;2023-03-22T10:10:24;100286.69;;;15.41;78.68
34500;BME280;20745;50.882;6.962;2023-03-22T10:12:58;100285.47;;;15.37;80.09
34500;BME280;20745;50.882;6.962;2023-03-22T10:15:40;100276.06;;;15.33;79.67
34500;BME280;20745;50.882;6.962;2023-03-22T10:18:15;100283.22;;;15.28;78.85
34500;BME280;20745;50.882;6.962;2023-03-22T10:20:56;100282.38;;;15.27;78.67
34500;BME280;20745;50.882;6.962;2023-03-22T10:23:37;100282.75;;;15.31;79.95
34500;BME280;20745;50.882;6.962;2023-03-22T10:26:06;100271.66;;;15.32;79.23
34500;BME280;20745;50.882;6.962;2023-03-22T10:28:42;100285.66;;;15.36;80.09
34500;BME280;20745;50.882;6.962;2023-03-22T10:31:15;100293.53;;;15.50;81.45
34500;BME280;20745;50.882;6.962;2023-03-22T10:33:59;100272.44;;;15.64;79.53
34500;BME280;20745;50.882;6.962;2023-03-22T10:36:30;100264.34;;;15.75;77.92
34500;BME280;20745;50.882;6.962;2023-03-22T10:39:04;100266.41;;;15.80;78.89
34500;BME280;20745;50.882;6.962;2023-03-22T10:41:35;100274.88;;;15.90;78.48
34500;BME280;20745;50.882;6.962;2023-03-22T10:44:03;100263.84;;;16.03;77.56
34500;BME280;20745;50.882;6.962;2023-03-22T10:46:35;100266.41;;;16.16;78.29
34500;BME280;20745;50.882;6.962;2023-03-22T10:49:04;100270.72;;;16.05;76.50
34500;BME280;20745;50.882;6.962;2023-03-22T10:51:49;100279.78;;;15.81;76.11
34500;BME280;20745;50.882;6.962;2023-03-22T10:54:18;100286.59;;;15.72;77.94
34500;BME280;20745;50.882;6.962;2023-03-22T10:56:46;100286.66;;;15.66;77.38
34500;BME280;20745;50.882;6.962;2023-03-22T10:59:42;100285.69;;;15.60;79.26
34500;BME280;20745;50.882;6.962;2023-03-22T11:02:43;100286.75;;;15.59;78.53
34500;BME280;20745;50.882;6.962;2023-03-22T11:05:19;100288.31;;;15.67;79.62
34500;BME280;20745;50.882;6.962;2023-03-22T11:07:48;100291.25;;;15.65;77.70
34500;BME280;20745;50.882;6.962;2023-03-22T11:10:24;100286.66;;;15.66;77.59
34500;BME280;20745;50.882;6.962;2023-03-22T11:12:55;100290.91;;;15.62;75.53
34500;BME280;20745;50.882;6.962;2023-03-22T11:15:38;100281.13;;;15.54;76.07
34500;BME280;20745;50.882;6.962;2023-03-22T11:18:09;100289.91;;;15.56;76.42
34500;BME280;20745;50.882;6.962;2023-03-22T11:20:40;100288.84;;;15.57;75.39
34500;BME280;20745;50.882;6.962;2023-03-22T11:23:12;100292.00;;;15.54;75.84
34500;BME280;20745;50.882;6.962;2023-03-22T11:25:45;100284.84;;;15.60;76.47
34500;BME280;20745;50.882;6.962;2023-03-22T11:28:27;100286.66;;;15.66;75.75
34500;BME280;20745;50.882;6.962;2023-03-22T11:31:13;100287.97;;;15.63;74.42
34500;BME280;20745;50.882;6.962;2023-03-22T11:36:18;100287.66;;;15.71;76.68
34500;BME280;20745;50.882;6.962;2023-03-22T11:38:45;100293.53;;;15.68;75.39
34500;BME280;20745;50.882;6.962;2023-03-22T11:41:28;100287.97;;;15.63;74.85
34500;BME280;20745;50.882;6.962;2023-03-22T11:44:16;100286.59;;;15.72;76.27
34500;BME280;20745;50.882;6.962;2023-03-22T11:46:48;100283.84;;;15.72;75.40
34500;BME280;20745;50.882;6.962;2023-03-22T11:49:16;100278.50;;;15.84;76.90
34500;BME280;20745;50.882;6.962;2023-03-22T11:51:43;100277.59;;;15.90;76.98
34500;BME280;20745;50.882;6.962;2023-03-22T11:54:26;100279.44;;;15.78;74.83
34500;BME280;20745;50.882;6.962;2023-03-22T11:56:57;100272.75;;;15.74;74.53
34500;BME280;20745;50.882;6.962;2023-03-22T11:59:36;100285.78;;;15.72;74.70
34500;BME280;20745;50.882;6.962;2023-03-22T12:02:20;100251.50;;;15.46;75.75
34500;BME280;20745;50.882;6.962;2023-03-22T12:04:52;100274.47;;;15.50;74.14
34500;BME280;20745;50.882;6.962;2023-03-22T12:07:24;100269.28;;;15.42;74.56
34500;BME280;20745;50.882;6.962;2023-03-22T12:09:59;100275.53;;;15.49;76.37
34500;BME280;20745;50.882;6.962;2023-03-22T12:12:34;100272.50;;;15.39;74.58
34500;BME280;20745;50.882;6.962;2023-03-22T12:15:03;100266.44;;;15.31;75.49
34500;BME280;20745;50.882;6.962;2023-03-22T12:20:06;100275.75;;;15.23;77.11
34500;BME280;20745;50.882;6.962;2023-03-22T12:22:40;100271.94;;;15.24;76.30
34500;BME280;20745;50.882;6.962;2023-03-22T12:25:13;100263.16;;;15.22;75.10
34500;BME280;20745;50.882;6.962;2023-03-22T12:27:46;100275.88;;;15.28;77.46
34500;BME280;20745;50.882;6.962;2023-03-22T12:30:26;100261.50;;;15.21;77.08
34500;BME280;20745;50.882;6.962;2023-03-22T12:33:04;100269.84;;;15.26;77.35
34500;BME280;20745;50.882;6.962;2023-03-22T12:35:38;100231.03;;;15.13;76.78
34500;BME280;20745;50.882;6.962;2023-03-22T12:38:23;100262.69;;;15.32;77.26
34500;BME280;20745;50.882;6.962;2023-03-22T12:40:55;100257.03;;;15.33;78.27
34500;BME280;20745;50.882;6.962;2023-03-22T12:43:51;100254.28;;;15.33;76.88
34500;BME280;20745;50.882;6.962;2023-03-22T12:46:22;100248.97;;;15.20;76.03
34500;BME280;20745;50.882;6.962;2023-03-22T12:51:20;100257.25;;;15.07;77.36
34500;BME280;20745;50.882;6.962;2023-03-22T12:53:52;100252.88;;;15.06;76.88
34500;BME280;20745;50.882;6.962;2023-03-22T12:56:31;100249.53;;;15.04;78.56
34500;BME280;20745;50.882;6.962;2023-03-22T12:59:02;100239.84;;;15.08;78.88
34500;BME280;20745;50.882;6.962;2023-03-22T13:01:47;100255.13;;;15.09;78.49
34500;BME280;20745;50.882;6.962;2023-03-22T13:09:49;100253.00;;;15.11;80.05
34500;BME280;20745;50.882;6.962;2023-03-22T13:20:19;100251.03;;;15.25;85.67
34500;BME280;20745;50.882;6.962;2023-03-22T13:27:50;100251.31;;;15.41;84.24
34500;BME280;20745;50.882;6.962;2023-03-22T13:30:25;100240.28;;;15.54;83.01
34500;BME280;20745;50.882;6.962;2023-03-22T13:33:00;100244.75;;;15.67;82.18
34500;BME280;20745;50.882;6.962;2023-03-22T13:35:45;100238.06;;;15.69;82.03
34500;BME280;20745;50.882;6.962;2023-03-22T13:38:28;100226.84;;;15.59;81.39
34500;BME280;20745;50.882;6.962;2023-03-22T13:41:03;100232.44;;;15.64;82.70
34500;BME280;20745;50.882;6.962;2023-03-22T13:43:33;100238.06;;;15.69;82.49
34500;BME280;20745;50.882;6.962;2023-03-22T13:53:48;100224.03;;;15.48;80.10
34500;BME280;20745;50.882;6.962;2023-03-22T14:01:50;100217.22;;;15.57;82.21
34500;BME280;20745;50.882;6.962;2023-03-22T14:04:29;100217.91;;;15.52;83.03
34500;BME280;20745;50.882;6.962;2023-03-22T14:07:10;100211.03;;;15.50;82.08
34500;BME280;20745;50.882;6.962;2023-03-22T14:09:42;100208.84;;;15.58;81.35
34500;BME280;20745;50.882;6.962;2023-03-22T14:15:00;100200.53;;;15.53;81.59
34500;BME280;20745;50.882;6.962;2023-03-22T14:20:20;100200.22;;;15.43;79.31
34500;BME280;20745;50.882;6.962;2023-03-22T14:22:56;100193.56;;;15.39;81.71